KLAL/LAL METAR and TAF weather

Enter ICAO airport designator
Station Type Date Time Source
KLAL METAR 2019/02/16 16:53 UTC NOAA

KLAL 161653Z 22010G15KT 10SM BKN030 25/17 A2993


Station Type Date Time Source
KLAL Decoded METAR 2019/02/16 16:53 UTC NOAA

Lakeland Regional, FL, United States (KLAL) 27-59N 082-01W
Feb 16, 2019 - 11:53 AM EST / 2019.02.16 1653 UTC
Wind: from the SW (220 degrees) at 12 MPH (10 KT) gusting to 17 MPH (15 KT):0
Visibility: 10 mile(s):0
Sky conditions: mostly cloudy
Temperature: 77 F (25 C)
Dew Point: 62 F (17 C)
Relative Humidity: 61%
Pressure (altimeter): 29.93 in. Hg (1013 hPa)
ob: KLAL 161653Z 22010G15KT 10SM BKN030 25/17 A2993
cycle: 17

Station Type Date Time Source
KLAL TAF 2019/02/16 18:34 UTC NOAA

TAF KLAL 161731Z 1618/1718 23011G17KT P6SM BKN030
FM170000 20005KT P6SM BKN250
FM170800 00000KT 3SM BR FEW010 SCT250
TEMPO 1709/1713 1SM BR SCT003
FM171500 18009KT P6SM SCT030


Example: see airport list